sensor_id;sensor_type;location;lat;lon;timestamp;pressure;altitude;pressure_sealevel;temperature
71463;BMP180;59266;52.608;13.260;2022-11-20T00:00:07;100720.00;;;0.80
71463;BMP180;59266;52.608;13.260;2022-11-20T00:02:34;100723.00;;;0.90
71463;BMP180;59266;52.608;13.260;2022-11-20T00:05:00;100721.00;;;0.80
71463;BMP180;59266;52.608;13.260;2022-11-20T00:07:27;100713.00;;;0.70
71463;BMP180;59266;52.608;13.260;2022-11-20T00:09:53;100713.00;;;0.70
71463;BMP180;59266;52.608;13.260;2022-11-20T00:12:20;100713.00;;;0.70
71463;BMP180;59266;52.608;13.260;2022-11-20T00:14:46;100713.00;;;0.70
71463;BMP180;59266;52.608;13.260;2022-11-20T00:17:13;100716.00;;;0.80
71463;BMP180;59266;52.608;13.260;2022-11-20T00:19:39;100714.00;;;0.80
71463;BMP180;59266;52.608;13.260;2022-11-20T00:22:06;100711.00;;;0.70
71463;BMP180;59266;52.608;13.260;2022-11-20T00:24:32;100709.00;;;0.70
71463;BMP180;59266;52.608;13.260;2022-11-20T00:26:58;100713.00;;;0.70
71463;BMP180;59266;52.608;13.260;2022-11-20T00:29:25;100709.00;;;0.70
71463;BMP180;59266;52.608;13.260;2022-11-20T00:31:51;100709.00;;;0.60
71463;BMP180;59266;52.608;13.260;2022-11-20T00:34:19;100710.00;;;0.70
71463;BMP180;59266;52.608;13.260;2022-11-20T00:36:47;100710.00;;;0.60
71463;BMP180;59266;52.608;13.260;2022-11-20T00:39:14;100713.00;;;0.80
71463;BMP180;59266;52.608;13.260;2022-11-20T00:41:41;100705.00;;;0.80
71463;BMP180;59266;52.608;13.260;2022-11-20T00:44:07;100720.00;;;0.70
71463;BMP180;59266;52.608;13.260;2022-11-20T00:46:34;100711.00;;;0.90
71463;BMP180;59266;52.608;13.260;2022-11-20T00:49:00;100718.00;;;0.80
71463;BMP180;59266;52.608;13.260;2022-11-20T00:51:27;100718.00;;;0.80
71463;BMP180;59266;52.608;13.260;2022-11-20T00:53:55;100709.00;;;0.80
71463;BMP180;59266;52.608;13.260;2022-11-20T00:56:22;100714.00;;;0.80
71463;BMP180;59266;52.608;13.260;2022-11-20T00:58:49;100709.00;;;0.70
71463;BMP180;59266;52.608;13.260;2022-11-20T01:01:24;100719.00;;;0.80
71463;BMP180;59266;52.608;13.260;2022-11-20T01:03:53;100719.00;;;0.80
71463;BMP180;59266;52.608;13.260;2022-11-20T01:06:25;100711.00;;;0.90
71463;BMP180;59266;52.608;13.260;2022-11-20T01:08:55;100716.00;;;0.90
71463;BMP180;59266;52.608;13.260;2022-11-20T01:11:26;100707.00;;;1.00
71463;BMP180;59266;52.608;13.260;2022-11-20T01:13:54;100701.00;;;0.90
71463;BMP180;59266;52.608;13.260;2022-11-20T01:16:24;100702.00;;;0.90
71463;BMP180;59266;52.608;13.260;2022-11-20T01:18:53;100696.00;;;0.90
71463;BMP180;59266;52.608;13.260;2022-11-20T01:21:22;100696.00;;;0.80
71463;BMP180;59266;52.608;13.260;2022-11-20T01:23:51;100704.00;;;0.80
71463;BMP180;59266;52.608;13.260;2022-11-20T01:26:19;100696.00;;;0.80
71463;BMP180;59266;52.608;13.260;2022-11-20T01:28:46;100703.00;;;0.90
71463;BMP180;59266;52.608;13.260;2022-11-20T01:31:16;100696.00;;;0.90
71463;BMP180;59266;52.608;13.260;2022-11-20T01:33:44;100696.00;;;0.90
71463;BMP180;59266;52.608;13.260;2022-11-20T01:36:12;100692.00;;;0.80
71463;BMP180;59266;52.608;13.260;2022-11-20T01:38:38;100704.00;;;0.70
71463;BMP180;59266;52.608;13.260;2022-11-20T01:41:06;100689.00;;;0.70
71463;BMP180;59266;52.608;13.260;2022-11-20T01:43:33;100692.00;;;0.70
71463;BMP180;59266;52.608;13.260;2022-11-20T01:46:13;100687.00;;;0.80
71463;BMP180;59266;52.608;13.260;2022-11-20T01:51:21;100689.00;;;0.70
71463;BMP180;59266;52.608;13.260;2022-11-20T01:53:49;100688.00;;;0.80
71463;BMP180;59266;52.608;13.260;2022-11-20T01:56:17;100683.00;;;0.60
71463;BMP180;59266;52.608;13.260;2022-11-20T01:58:48;100677.00;;;0.80
71463;BMP180;59266;52.608;13.260;2022-11-20T02:01:16;100675.00;;;0.80
71463;BMP180;59266;52.608;13.260;2022-11-20T02:03:43;100678.00;;;0.80
71463;BMP180;59266;52.608;13.260;2022-11-20T02:06:24;100678.00;;;0.60
71463;BMP180;59266;52.608;13.260;2022-11-20T02:08:52;100675.00;;;0.80
71463;BMP180;59266;52.608;13.260;2022-11-20T02:11:18;100660.00;;;0.80
71463;BMP180;59266;52.608;13.260;2022-11-20T02:13:45;100676.00;;;0.80
71463;BMP180;59266;52.608;13.260;2022-11-20T02:18:51;100670.00;;;0.80
71463;BMP180;59266;52.608;13.260;2022-11-20T02:24:05;100670.00;;;0.80
71463;BMP180;59266;52.608;13.260;2022-11-20T02:26:59;100663.00;;;0.90
71463;BMP180;59266;52.608;13.260;2022-11-20T02:29:26;100672.00;;;1.00
71463;BMP180;59266;52.608;13.260;2022-11-20T02:31:55;100673.00;;;0.90
71463;BMP180;59266;52.608;13.260;2022-11-20T02:34:22;100667.00;;;0.70
71463;BMP180;59266;52.608;13.260;2022-11-20T02:36:51;100668.00;;;0.80
71463;BMP180;59266;52.608;13.260;2022-11-20T02:39:19;100675.00;;;0.60
71463;BMP180;59266;52.608;13.260;2022-11-20T02:41:47;100667.00;;;0.50
71463;BMP180;59266;52.608;13.260;2022-11-20T02:44:13;100662.00;;;0.70
71463;BMP180;59266;52.608;13.260;2022-11-20T02:46:40;100664.00;;;0.70
71463;BMP180;59266;52.608;13.260;2022-11-20T02:49:06;100659.00;;;0.60
71463;BMP180;59266;52.608;13.260;2022-11-20T02:51:33;100667.00;;;0.60
71463;BMP180;59266;52.608;13.260;2022-11-20T02:53:59;100662.00;;;0.60
71463;BMP180;59266;52.608;13.260;2022-11-20T02:56:28;100673.00;;;0.60
71463;BMP180;59266;52.608;13.260;2022-11-20T02:58:54;100675.00;;;0.50
71463;BMP180;59266;52.608;13.260;2022-11-20T03:01:21;100671.00;;;0.50
71463;BMP180;59266;52.608;13.260;2022-11-20T03:03:48;100670.00;;;0.80
71463;BMP180;59266;52.608;13.260;2022-11-20T03:06:16;100673.00;;;0.80
71463;BMP180;59266;52.608;13.260;2022-11-20T03:08:43;100659.00;;;0.70
71463;BMP180;59266;52.608;13.260;2022-11-20T03:11:10;100655.00;;;0.60
71463;BMP180;59266;52.608;13.260;2022-11-20T03:13:37;100655.00;;;0.60
71463;BMP180;59266;52.608;13.260;2022-11-20T03:16:11;100657.00;;;0.60
71463;BMP180;59266;52.608;13.260;2022-11-20T03:18:39;100654.00;;;0.60
71463;BMP180;59266;52.608;13.260;2022-11-20T03:21:06;100657.00;;;0.70
71463;BMP180;59266;52.608;13.260;2022-11-20T03:23:33;100650.00;;;0.50
71463;BMP180;59266;52.608;13.260;2022-11-20T03:26:19;100648.00;;;0.70
71463;BMP180;59266;52.608;13.260;2022-11-20T03:28:53;100650.00;;;0.50
71463;BMP180;59266;52.608;13.260;2022-11-20T03:31:23;100646.00;;;0.60
71463;BMP180;59266;52.608;13.260;2022-11-20T03:33:50;100649.00;;;0.50
71463;BMP180;59266;52.608;13.260;2022-11-20T03:36:18;100642.00;;;0.70
71463;BMP180;59266;52.608;13.260;2022-11-20T03:38:45;100655.00;;;0.70
71463;BMP180;59266;52.608;13.260;2022-11-20T03:41:20;100640.00;;;0.60
71463;BMP180;59266;52.608;13.260;2022-11-20T03:43:48;100643.00;;;0.70
71463;BMP180;59266;52.608;13.260;2022-11-20T03:46:15;100639.00;;;0.70
71463;BMP180;59266;52.608;13.260;2022-11-20T03:48:42;100631.00;;;0.60
71463;BMP180;59266;52.608;13.260;2022-11-20T03:51:21;100636.00;;;0.70
71463;BMP180;59266;52.608;13.260;2022-11-20T03:53:48;100638.00;;;0.50
71463;BMP180;59266;52.608;13.260;2022-11-20T03:56:17;100625.00;;;0.50
71463;BMP180;59266;52.608;13.260;2022-11-20T03:58:44;100634.00;;;0.60
71463;BMP180;59266;52.608;13.260;2022-11-20T04:01:13;100632.00;;;0.50
71463;BMP180;59266;52.608;13.260;2022-11-20T04:03:40;100633.00;;;0.50
71463;BMP180;59266;52.608;13.260;2022-11-20T04:08:34;100640.00;;;0.60
71463;BMP180;59266;52.608;13.260;2022-11-20T04:11:28;100638.00;;;0.70
71463;BMP180;59266;52.608;13.260;2022-11-20T04:13:58;100626.00;;;0.70
71463;BMP180;59266;52.608;13.260;2022-11-20T04:16:26;100632.00;;;0.60
71463;BMP180;59266;52.608;13.260;2022-11-20T04:18:53;100637.00;;;0.50
71463;BMP180;59266;52.608;13.260;2022-11-20T04:21:21;100627.00;;;0.50
71463;BMP180;59266;52.608;13.260;2022-11-20T04:23:48;100640.00;;;0.40
71463;BMP180;59266;52.608;13.260;2022-11-20T04:26:15;100637.00;;;0.40
71463;BMP180;59266;52.608;13.260;2022-11-20T04:28:41;100637.00;;;0.40
71463;BMP180;59266;52.608;13.260;2022-11-20T04:31:18;100639.00;;;0.40
71463;BMP180;59266;52.608;13.260;2022-11-20T04:33:45;100634.00;;;0.40
71463;BMP180;59266;52.608;13.260;2022-11-20T04:36:14;100625.00;;;0.50
71463;BMP180;59266;52.608;13.260;2022-11-20T04:38:41;100636.00;;;0.50
71463;BMP180;59266;52.608;13.260;2022-11-20T04:41:13;100639.00;;;0.30
71463;BMP180;59266;52.608;13.260;2022-11-20T04:43:40;100634.00;;;0.40
71463;BMP180;59266;52.608;13.260;2022-11-20T04:46:06;100625.00;;;0.50
71463;BMP180;59266;52.608;13.260;2022-11-20T04:48:34;100630.00;;;0.50
71463;BMP180;59266;52.608;13.260;2022-11-20T04:51:02;100631.00;;;0.50
71463;BMP180;59266;52.608;13.260;2022-11-20T04:53:29;100619.00;;;0.60
71463;BMP180;59266;52.608;13.260;2022-11-20T04:56:00;100619.00;;;0.50
71463;BMP180;59266;52.608;13.260;2022-11-20T04:58:27;100620.00;;;0.60
71463;BMP180;59266;52.608;13.260;2022-11-20T05:01:10;100631.00;;;0.50
71463;BMP180;59266;52.608;13.260;2022-11-20T05:03:39;100626.00;;;0.40
71463;BMP180;59266;52.608;13.260;2022-11-20T05:06:09;100628.00;;;0.30
71463;BMP180;59266;52.608;13.260;2022-11-20T05:08:35;100616.00;;;0.40
71463;BMP180;59266;52.608;13.260;2022-11-20T05:11:10;100612.00;;;0.40
71463;BMP180;59266;52.608;13.260;2022-11-20T05:13:39;100614.00;;;0.40
71463;BMP180;59266;52.608;13.260;2022-11-20T05:16:09;100619.00;;;0.40
71463;BMP180;59266;52.608;13.260;2022-11-20T05:18:38;100601.00;;;0.40
71463;BMP180;59266;52.608;13.260;2022-11-20T05:21:05;100606.00;;;0.40
71463;BMP180;59266;52.608;13.260;2022-11-20T05:23:33;100598.00;;;0.30
71463;BMP180;59266;52.608;13.260;2022-11-20T05:26:00;100604.00;;;0.30
71463;BMP180;59266;52.608;13.260;2022-11-20T05:28:28;100599.00;;;0.30
71463;BMP180;59266;52.608;13.260;2022-11-20T05:30:55;100596.00;;;0.40
71463;BMP180;59266;52.608;13.260;2022-11-20T05:33:21;100592.00;;;0.50
71463;BMP180;59266;52.608;13.260;2022-11-20T05:35:48;100596.00;;;0.20
71463;BMP180;59266;52.608;13.260;2022-11-20T05:38:15;100582.00;;;0.20
71463;BMP180;59266;52.608;13.260;2022-11-20T05:40:41;100588.00;;;0.20
71463;BMP180;59266;52.608;13.260;2022-11-20T05:43:08;100588.00;;;0.30
71463;BMP180;59266;52.608;13.260;2022-11-20T05:45:34;100589.00;;;0.40
71463;BMP180;59266;52.608;13.260;2022-11-20T05:48:01;100579.00;;;0.40
71463;BMP180;59266;52.608;13.260;2022-11-20T05:50:27;100582.00;;;0.20
71463;BMP180;59266;52.608;13.260;2022-11-20T05:52:57;100580.00;;;0.20
71463;BMP180;59266;52.608;13.260;2022-11-20T05:55:24;100583.00;;;0.40
71463;BMP180;59266;52.608;13.260;2022-11-20T05:57:53;100580.00;;;0.50
71463;BMP180;59266;52.608;13.260;2022-11-20T06:00:20;100581.00;;;0.40
71463;BMP180;59266;52.608;13.260;2022-11-20T06:02:47;100570.00;;;0.50
71463;BMP180;59266;52.608;13.260;2022-11-20T06:05:14;100570.00;;;0.50
71463;BMP180;59266;52.608;13.260;2022-11-20T06:07:41;100572.00;;;0.40
71463;BMP180;59266;52.608;13.260;2022-11-20T06:10:07;100574.00;;;0.50
71463;BMP180;59266;52.608;13.260;2022-11-20T06:12:34;100580.00;;;0.40
71463;BMP180;59266;52.608;13.260;2022-11-20T06:15:01;100577.00;;;0.60
71463;BMP180;59266;52.608;13.260;2022-11-20T06:17:27;100573.00;;;0.50
71463;BMP180;59266;52.608;13.260;2022-11-20T06:19:54;100569.00;;;0.50
71463;BMP180;59266;52.608;13.260;2022-11-20T06:22:20;100571.00;;;0.40
71463;BMP180;59266;52.608;13.260;2022-11-20T06:24:47;100576.00;;;0.50
71463;BMP180;59266;52.608;13.260;2022-11-20T06:27:13;100568.00;;;0.50
71463;BMP180;59266;52.608;13.260;2022-11-20T06:29:40;100569.00;;;0.50
71463;BMP180;59266;52.608;13.260;2022-11-20T06:32:06;100571.00;;;0.40
71463;BMP180;59266;52.608;13.260;2022-11-20T06:34:33;100574.00;;;0.50
71463;BMP180;59266;52.608;13.260;2022-11-20T06:36:59;100574.00;;;0.50
71463;BMP180;59266;52.608;13.260;2022-11-20T06:39:26;100568.00;;;0.60
71463;BMP180;59266;52.608;13.260;2022-11-20T06:41:52;100572.00;;;0.50
71463;BMP180;59266;52.608;13.260;2022-11-20T06:44:24;100564.00;;;0.50
71463;BMP180;59266;52.608;13.260;2022-11-20T06:46:51;100574.00;;;0.50
71463;BMP180;59266;52.608;13.260;2022-11-20T06:49:17;100572.00;;;0.50
71463;BMP180;59266;52.608;13.260;2022-11-20T06:51:44;100560.00;;;0.50
71463;BMP180;59266;52.608;13.260;2022-11-20T06:54:11;100569.00;;;0.50
71463;BMP180;59266;52.608;13.260;2022-11-20T06:56:37;100563.00;;;0.60
71463;BMP180;59266;52.608;13.260;2022-11-20T06:59:05;100561.00;;;0.60
71463;BMP180;59266;52.608;13.260;2022-11-20T07:01:32;100560.00;;;0.60
71463;BMP180;59266;52.608;13.260;2022-11-20T07:03:59;100566.00;;;0.60
71463;BMP180;59266;52.608;13.260;2022-11-20T07:06:25;100567.00;;;0.50
71463;BMP180;59266;52.608;13.260;2022-11-20T07:08:51;100564.00;;;0.60
71463;BMP180;59266;52.608;13.260;2022-11-20T07:11:23;100566.00;;;0.70
71463;BMP180;59266;52.608;13.260;2022-11-20T07:13:52;100567.00;;;0.70
71463;BMP180;59266;52.608;13.260;2022-11-20T07:16:18;100565.00;;;0.70
71463;BMP180;59266;52.608;13.260;2022-11-20T07:18:47;100571.00;;;0.70
71463;BMP180;59266;52.608;13.260;2022-11-20T07:21:16;100561.00;;;0.70
71463;BMP180;59266;52.608;13.260;2022-11-20T07:23:43;100562.00;;;0.80
71463;BMP180;59266;52.608;13.260;2022-11-20T07:26:10;100563.00;;;0.80
71463;BMP180;59266;52.608;13.260;2022-11-20T07:28:37;100564.00;;;0.80
71463;BMP180;59266;52.608;13.260;2022-11-20T07:31:04;100559.00;;;0.80
71463;BMP180;59266;52.608;13.260;2022-11-20T07:33:34;100559.00;;;0.70
71463;BMP180;59266;52.608;13.260;2022-11-20T07:36:01;100558.00;;;0.70
71463;BMP180;59266;52.608;13.260;2022-11-20T07:38:27;100556.00;;;0.90
71463;BMP180;59266;52.608;13.260;2022-11-20T07:40:57;100551.00;;;1.10
71463;BMP180;59266;52.608;13.260;2022-11-20T07:43:24;100557.00;;;0.90
71463;BMP180;59266;52.608;13.260;2022-11-20T07:45:51;100558.00;;;1.00
71463;BMP180;59266;52.608;13.260;2022-11-20T07:48:17;100552.00;;;1.00
71463;BMP180;59266;52.608;13.260;2022-11-20T07:50:44;100550.00;;;1.20
71463;BMP180;59266;52.608;13.260;2022-11-20T07:53:10;100543.00;;;1.40
71463;BMP180;59266;52.608;13.260;2022-11-20T07:55:39;100550.00;;;1.20
71463;BMP180;59266;52.608;13.260;2022-11-20T07:58:08;100544.00;;;1.20
71463;BMP180;59266;52.608;13.260;2022-11-20T08:00:34;100540.00;;;1.40
71463;BMP180;59266;52.608;13.260;2022-11-20T08:03:03;100536.00;;;1.50
71463;BMP180;59266;52.608;13.260;2022-11-20T08:05:32;100539.00;;;1.60
71463;BMP180;59266;52.608;13.260;2022-11-20T08:07:59;100537.00;;;1.60
71463;BMP180;59266;52.608;13.260;2022-11-20T08:10:26;100545.00;;;1.70
71463;BMP180;59266;52.608;13.260;2022-11-20T08:12:53;100551.00;;;1.50
71463;BMP180;59266;52.608;13.260;2022-11-20T08:15:39;100549.00;;;1.50
71463;BMP180;59266;52.608;13.260;2022-11-20T08:18:10;100551.00;;;1.50
71463;BMP180;59266;52.608;13.260;2022-11-20T08:21:01;100548.00;;;1.50
71463;BMP180;59266;52.608;13.260;2022-11-20T08:23:27;100543.00;;;1.70
71463;BMP180;59266;52.608;13.260;2022-11-20T08:25:54;100542.00;;;1.40
71463;BMP180;59266;52.608;13.260;2022-11-20T08:28:20;100548.00;;;1.30
71463;BMP180;59266;52.608;13.260;2022-11-20T08:30:48;100544.00;;;1.50
71463;BMP180;59266;52.608;13.260;2022-11-20T08:33:16;100528.00;;;1.60
71463;BMP180;59266;52.608;13.260;2022-11-20T08:35:43;100533.00;;;1.80
71463;BMP180;59266;52.608;13.260;2022-11-20T08:38:10;100530.00;;;1.70
71463;BMP180;59266;52.608;13.260;2022-11-20T08:40:36;100534.00;;;1.80
71463;BMP180;59266;52.608;13.260;2022-11-20T08:43:03;100527.00;;;1.90
71463;BMP180;59266;52.608;13.260;2022-11-20T08:45:29;100540.00;;;1.90
71463;BMP180;59266;52.608;13.260;2022-11-20T08:48:01;100532.00;;;1.70
71463;BMP180;59266;52.608;13.260;2022-11-20T08:50:28;100537.00;;;1.90
71463;BMP180;59266;52.608;13.260;2022-11-20T08:52:54;100531.00;;;1.80
71463;BMP180;59266;52.608;13.260;2022-11-20T08:55:23;100528.00;;;1.80
71463;BMP180;59266;52.608;13.260;2022-11-20T08:57:50;100527.00;;;1.80
71463;BMP180;59266;52.608;13.260;2022-11-20T09:00:17;100528.00;;;1.70
71463;BMP180;59266;52.608;13.260;2022-11-20T09:02:43;100520.00;;;1.80
71463;BMP180;59266;52.608;13.260;2022-11-20T09:05:10;100525.00;;;1.90
71463;BMP180;59266;52.608;13.260;2022-11-20T09:07:36;100534.00;;;2.30
71463;BMP180;59266;52.608;13.260;2022-11-20T09:10:03;100529.00;;;2.00
71463;BMP180;59266;52.608;13.260;2022-11-20T09:12:49;100528.00;;;2.20
71463;BMP180;59266;52.608;13.260;2022-11-20T09:15:17;100523.00;;;2.20
71463;BMP180;59266;52.608;13.260;2022-11-20T09:17:56;100537.00;;;2.00
71463;BMP180;59266;52.608;13.260;2022-11-20T09:20:23;100532.00;;;2.00
71463;BMP180;59266;52.608;13.260;2022-11-20T09:22:50;100534.00;;;2.10
71463;BMP180;59266;52.608;13.260;2022-11-20T09:25:17;100530.00;;;2.10
71463;BMP180;59266;52.608;13.260;2022-11-20T09:27:44;100528.00;;;2.20
71463;BMP180;59266;52.608;13.260;2022-11-20T09:30:14;100526.00;;;2.30
71463;BMP180;59266;52.608;13.260;2022-11-20T09:32:41;100525.00;;;2.60
71463;BMP180;59266;52.608;13.260;2022-11-20T09:35:08;100534.00;;;2.50
71463;BMP180;59266;52.608;13.260;2022-11-20T09:37:35;100525.00;;;2.50
71463;BMP180;59266;52.608;13.260;2022-11-20T09:40:02;100530.00;;;2.80
71463;BMP180;59266;52.608;13.260;2022-11-20T09:56:39;100509.00;;;2.60
71463;BMP180;59266;52.608;13.260;2022-11-20T09:59:29;100503.00;;;2.90
71463;BMP180;59266;52.608;13.260;2022-11-20T10:01:58;100501.00;;;2.90
71463;BMP180;59266;52.608;13.260;2022-11-20T10:04:27;100505.00;;;3.20
71463;BMP180;59266;52.608;13.260;2022-11-20T10:07:13;100509.00;;;2.80
71463;BMP180;59266;52.608;13.260;2022-11-20T10:09:58;100500.00;;;2.90
71463;BMP180;59266;52.608;13.260;2022-11-20T10:18:34;100498.00;;;3.00
71463;BMP180;59266;52.608;13.260;2022-11-20T10:21:41;100489.00;;;2.90
71463;BMP180;59266;52.608;13.260;2022-11-20T10:24:35;100494.00;;;2.90
71463;BMP180;59266;52.608;13.260;2022-11-20T10:30:08;100487.00;;;3.00
71463;BMP180;59266;52.608;13.260;2022-11-20T10:32:38;100484.00;;;2.80
71463;BMP180;59266;52.608;13.260;2022-11-20T10:35:27;100479.00;;;3.30
71463;BMP180;59266;52.608;13.260;2022-11-20T10:38:01;100474.00;;;2.80
71463;BMP180;59266;52.608;13.260;2022-11-20T10:40:36;100478.00;;;2.90
71463;BMP180;59266;52.608;13.260;2022-11-20T10:43:13;100470.00;;;3.40
71463;BMP180;59266;52.608;13.260;2022-11-20T10:45:50;100465.00;;;3.70
71463;BMP180;59266;52.608;13.260;2022-11-20T10:48:26;100468.00;;;4.10
71463;BMP180;59266;52.608;13.260;2022-11-20T10:51:04;100459.00;;;3.90
71463;BMP180;59266;52.608;13.260;2022-11-20T10:53:44;100460.00;;;3.20
71463;BMP180;59266;52.608;13.260;2022-11-20T10:56:19;100473.00;;;3.50
71463;BMP180;59266;52.608;13.260;2022-11-20T11:01:21;100485.00;;;3.00
71463;BMP180;59266;52.608;13.260;2022-11-20T11:03:51;100484.00;;;2.80
71463;BMP180;59266;52.608;13.260;2022-11-20T11:06:40;100474.00;;;2.70
71463;BMP180;59266;52.608;13.260;2022-11-20T11:09:15;100481.00;;;2.60
71463;BMP180;59266;52.608;13.260;2022-11-20T11:11:42;100472.00;;;2.80
71463;BMP180;59266;52.608;13.260;2022-11-20T11:14:12;100473.00;;;2.80
71463;BMP180;59266;52.608;13.260;2022-11-20T11:16:54;100472.00;;;2.60
71463;BMP180;59266;52.608;13.260;2022-11-20T11:19:21;100480.00;;;2.60
71463;BMP180;59266;52.608;13.260;2022-11-20T11:21:53;100489.00;;;2.80
71463;BMP180;59266;52.608;13.260;2022-11-20T11:24:23;100477.00;;;2.30
71463;BMP180;59266;52.608;13.260;2022-11-20T11:27:13;100480.00;;;2.40
71463;BMP180;59266;52.608;13.260;2022-11-20T11:29:44;100476.00;;;2.20
71463;BMP180;59266;52.608;13.260;2022-11-20T11:32:29;100473.00;;;2.40
71463;BMP180;59266;52.608;13.260;2022-11-20T11:35:00;100469.00;;;2.40
71463;BMP180;59266;52.608;13.260;2022-11-20T11:37:32;100461.00;;;2.20
71463;BMP180;59266;52.608;13.260;2022-11-20T11:39:59;100463.00;;;2.00
71463;BMP180;59266;52.608;13.260;2022-11-20T11:42:56;100462.00;;;2.30
71463;BMP180;59266;52.608;13.260;2022-11-20T11:45:24;100454.00;;;2.30
71463;BMP180;59266;52.608;13.260;2022-11-20T11:47:52;100454.00;;;2.20
71463;BMP180;59266;52.608;13.260;2022-11-20T11:50:22;100454.00;;;2.40
71463;BMP180;59266;52.608;13.260;2022-11-20T11:53:05;100454.00;;;2.50
71463;BMP180;59266;52.608;13.260;2022-11-20T11:56:03;100456.00;;;2.70
71463;BMP180;59266;52.608;13.260;2022-11-20T11:58:47;100454.00;;;2.40
71463;BMP180;59266;52.608;13.260;2022-11-20T12:01:46;100447.00;;;2.50
71463;BMP180;59266;52.608;13.260;2022-11-20T12:04:44;100451.00;;;2.10
71463;BMP180;59266;52.608;13.260;2022-11-20T12:07:37;100452.00;;;2.20
71463;BMP180;59266;52.608;13.260;2022-11-20T12:10:17;100452.00;;;2.30
71463;BMP180;59266;52.608;13.260;2022-11-20T12:12:51;100448.00;;;2.70
71463;BMP180;59266;52.608;13.260;2022-11-20T12:15:33;100443.00;;;2.60
71463;BMP180;59266;52.608;13.260;2022-11-20T12:18:00;100442.00;;;2.90
71463;BMP180;59266;52.608;13.260;2022-11-20T12:20:34;100436.00;;;2.40
71463;BMP180;59266;52.608;13.260;2022-11-20T12:23:09;100434.00;;;2.80
71463;BMP180;59266;52.608;13.260;2022-11-20T12:25:42;100436.00;;;2.60
71463;BMP180;59266;52.608;13.260;2022-11-20T12:28:30;100440.00;;;2.70
71463;BMP180;59266;52.608;13.260;2022-11-20T12:31:38;100429.00;;;2.60
71463;BMP180;59266;52.608;13.260;2022-11-20T12:34:40;100424.00;;;2.60
71463;BMP180;59266;52.608;13.260;2022-11-20T12:37:33;100431.00;;;2.70
71463;BMP180;59266;52.608;13.260;2022-11-20T12:40:15;100425.00;;;3.10
71463;BMP180;59266;52.608;13.260;2022-11-20T12:42:56;100417.00;;;2.80
71463;BMP180;59266;52.608;13.260;2022-11-20T12:45:54;100412.00;;;2.80
71463;BMP180;59266;52.608;13.260;2022-11-20T12:48:48;100401.00;;;3.10
71463;BMP180;59266;52.608;13.260;2022-11-20T12:51:28;100403.00;;;3.30
71463;BMP180;59266;52.608;13.260;2022-11-20T12:59:43;100403.00;;;3.20
71463;BMP180;59266;52.608;13.260;2022-11-20T13:02:30;100402.00;;;4.00
71463;BMP180;59266;52.608;13.260;2022-11-20T13:07:46;100404.00;;;3.70
71463;BMP180;59266;52.608;13.260;2022-11-20T13:10:23;100406.00;;;3.30
71463;BMP180;59266;52.608;13.260;2022-11-20T13:13:13;100406.00;;;3.10
71463;BMP180;59266;52.608;13.260;2022-11-20T13:16:04;100407.00;;;2.90
71463;BMP180;59266;52.608;13.260;2022-11-20T13:18:38;100398.00;;;2.50
71463;BMP180;59266;52.608;13.260;2022-11-20T13:21:21;100396.00;;;2.30
71463;BMP180;59266;52.608;13.260;2022-11-20T13:23:47;100390.00;;;2.40
71463;BMP180;59266;52.608;13.260;2022-11-20T13:26:21;100391.00;;;2.60
71463;BMP180;59266;52.608;13.260;2022-11-20T13:29:10;100407.00;;;2.90
71463;BMP180;59266;52.608;13.260;2022-11-20T13:31:43;100402.00;;;2.90
71463;BMP180;59266;52.608;13.260;2022-11-20T13:34:14;100412.00;;;2.70
71463;BMP180;59266;52.608;13.260;2022-11-20T13:36:51;100414.00;;;2.50
71463;BMP180;59266;52.608;13.260;2022-11-20T13:39:29;100412.00;;;2.60
71463;BMP180;59266;52.608;13.260;2022-11-20T13:41:58;100415.00;;;2.80
71463;BMP180;59266;52.608;13.260;2022-11-20T13:44:38;100414.00;;;2.50
71463;BMP180;59266;52.608;13.260;2022-11-20T13:47:23;100411.00;;;2.30
71463;BMP180;59266;52.608;13.260;2022-11-20T13:49:51;100418.00;;;2.50
71463;BMP180;59266;52.608;13.260;2022-11-20T13:55:23;100416.00;;;2.10
71463;BMP180;59266;52.608;13.260;2022-11-20T13:58:15;100410.00;;;2.20
71463;BMP180;59266;52.608;13.260;2022-11-20T14:00:51;100417.00;;;2.00
71463;BMP180;59266;52.608;13.260;2022-11-20T14:03:28;100415.00;;;2.30
71463;BMP180;59266;52.608;13.260;2022-11-20T14:08:48;100407.00;;;2.30
71463;BMP180;59266;52.608;13.260;2022-11-20T14:11:17;100413.00;;;2.20
71463;BMP180;59266;52.608;13.260;2022-11-20T14:13:59;100401.00;;;2.20
71463;BMP180;59266;52.608;13.260;2022-11-20T14:16:28;100414.00;;;1.90
71463;BMP180;59266;52.608;13.260;2022-11-20T14:18:56;100414.00;;;1.90
71463;BMP180;59266;52.608;13.260;2022-11-20T14:21:25;100414.00;;;1.80
71463;BMP180;59266;52.608;13.260;2022-11-20T14:23:53;100408.00;;;1.80
71463;BMP180;59266;52.608;13.260;2022-11-20T14:26:20;100405.00;;;1.90
71463;BMP180;59266;52.608;13.260;2022-11-20T14:28:50;100399.00;;;1.90
71463;BMP180;59266;52.608;13.260;2022-11-20T14:31:23;100412.00;;;1.90
71463;BMP180;59266;52.608;13.260;2022-11-20T14:33:52;100405.00;;;2.00
71463;BMP180;59266;52.608;13.260;2022-11-20T14:36:22;100412.00;;;1.90
71463;BMP180;59266;52.608;13.260;2022-11-20T14:38:50;100405.00;;;1.90
71463;BMP180;59266;52.608;13.260;2022-11-20T14:41:23;100414.00;;;1.60
71463;BMP180;59266;52.608;13.260;2022-11-20T14:43:57;100406.00;;;1.60
71463;BMP180;59266;52.608;13.260;2022-11-20T14:46:24;100396.00;;;1.60
71463;BMP180;59266;52.608;13.260;2022-11-20T14:48:54;100389.00;;;1.80
71463;BMP180;59266;52.608;13.260;2022-11-20T14:51:31;100403.00;;;1.70
71463;BMP180;59266;52.608;13.260;2022-11-20T14:54:17;100386.00;;;1.70
71463;BMP180;59266;52.608;13.260;2022-11-20T14:57:01;100397.00;;;1.60
71463;BMP180;59266;52.608;13.260;2022-11-20T14:59:33;100396.00;;;1.60
71463;BMP180;59266;52.608;13.260;2022-11-20T15:02:05;100397.00;;;1.60
71463;BMP180;59266;52.608;13.260;2022-11-20T15:04:32;100399.00;;;1.70
71463;BMP180;59266;52.608;13.260;2022-11-20T15:06:59;100400.00;;;1.50
71463;BMP180;59266;52.608;13.260;2022-11-20T15:09:26;100388.00;;;1.70